sensor_id;sensor_type;location;lat;lon;timestamp;temperature;humidity
41884;DHT22;27566;50.930;5.328;2023-06-14T18:10:24;27.10;40.10
41884;DHT22;27566;50.930;5.328;2023-06-14T18:12:50;27.10;36.10
41884;DHT22;27566;50.930;5.328;2023-06-14T18:15:16;27.40;34.90
41884;DHT22;27566;50.930;5.328;2023-06-14T18:17:42;27.90;34.00
41884;DHT22;27566;50.930;5.328;2023-06-14T18:20:08;28.40;33.30
41884;DHT22;27566;50.930;5.328;2023-06-14T18:22:35;28.90;32.70
41884;DHT22;27566;50.930;5.328;2023-06-14T18:25:00;29.30;32.20
41884;DHT22;27566;50.930;5.328;2023-06-14T18:27:26;29.80;31.00
41884;DHT22;27566;50.930;5.328;2023-06-14T18:29:52;29.90;31.10
41884;DHT22;27566;50.930;5.328;2023-06-14T18:32:18;30.10;30.90
41884;DHT22;27566;50.930;5.328;2023-06-14T18:34:44;30.20;31.30
41884;DHT22;27566;50.930;5.328;2023-06-14T18:37:10;30.30;30.40
41884;DHT22;27566;50.930;5.328;2023-06-14T18:39:36;30.40;30.10
41884;DHT22;27566;50.930;5.328;2023-06-14T18:42:02;30.50;30.20
41884;DHT22;27566;50.930;5.328;2023-06-14T18:44:29;30.50;30.00
41884;DHT22;27566;50.930;5.328;2023-06-14T18:46:55;30.50;30.20
41884;DHT22;27566;50.930;5.328;2023-06-14T18:49:21;30.50;30.10
41884;DHT22;27566;50.930;5.328;2023-06-14T18:51:47;30.50;30.30
41884;DHT22;27566;50.930;5.328;2023-06-14T18:54:13;30.30;30.30
41884;DHT22;27566;50.930;5.328;2023-06-14T18:56:39;30.20;30.60
41884;DHT22;27566;50.930;5.328;2023-06-14T18:59:05;30.00;30.80
41884;DHT22;27566;50.930;5.328;2023-06-14T19:01:31;29.90;30.90
41884;DHT22;27566;50.930;5.328;2023-06-14T19:03:56;29.80;31.00
41884;DHT22;27566;50.930;5.328;2023-06-14T19:06:22;29.70;31.20
41884;DHT22;27566;50.930;5.328;2023-06-14T19:08:50;29.50;31.20
41884;DHT22;27566;50.930;5.328;2023-06-14T19:11:16;29.30;31.70
41884;DHT22;27566;50.930;5.328;2023-06-14T19:13:42;29.10;32.00
41884;DHT22;27566;50.930;5.328;2023-06-14T19:16:09;28.90;32.30
41884;DHT22;27566;50.930;5.328;2023-06-14T19:18:36;28.70;32.60
41884;DHT22;27566;50.930;5.328;2023-06-14T19:21:02;28.60;32.80
41884;DHT22;27566;50.930;5.328;2023-06-14T19:23:28;28.40;33.10
41884;DHT22;27566;50.930;5.328;2023-06-14T19:25:54;28.20;33.20
41884;DHT22;27566;50.930;5.328;2023-06-14T19:28:20;28.10;33.60
41884;DHT22;27566;50.930;5.328;2023-06-14T19:30:47;27.80;33.70
41884;DHT22;27566;50.930;5.328;2023-06-14T19:33:13;27.70;34.10
41884;DHT22;27566;50.930;5.328;2023-06-14T19:35:42;27.30;34.40
41884;DHT22;27566;50.930;5.328;2023-06-14T19:38:08;27.00;35.00
41884;DHT22;27566;50.930;5.328;2023-06-14T19:40:38;26.60;35.60
41884;DHT22;27566;50.930;5.328;2023-06-14T19:43:04;26.30;36.10
41884;DHT22;27566;50.930;5.328;2023-06-14T19:45:31;26.10;36.70
41884;DHT22;27566;50.930;5.328;2023-06-14T19:47:56;25.90;37.10
41884;DHT22;27566;50.930;5.328;2023-06-14T19:50:22;25.60;37.40
41884;DHT22;27566;50.930;5.328;2023-06-14T19:52:48;25.40;37.70
41884;DHT22;27566;50.930;5.328;2023-06-14T19:55:14;25.20;38.00
41884;DHT22;27566;50.930;5.328;2023-06-14T19:57:41;25.00;38.30
41884;DHT22;27566;50.930;5.328;2023-06-14T20:00:07;24.90;38.80
41884;DHT22;27566;50.930;5.328;2023-06-14T20:02:34;24.70;39.20
41884;DHT22;27566;50.930;5.328;2023-06-14T20:05:00;24.50;39.30
41884;DHT22;27566;50.930;5.328;2023-06-14T20:07:26;24.40;39.90
41884;DHT22;27566;50.930;5.328;2023-06-14T20:09:53;24.30;40.00
41884;DHT22;27566;50.930;5.328;2023-06-14T20:12:21;24.10;40.10
41884;DHT22;27566;50.930;5.328;2023-06-14T20:14:47;24.00;40.40
41884;DHT22;27566;50.930;5.328;2023-06-14T20:17:13;23.90;40.50
41884;DHT22;27566;50.930;5.328;2023-06-14T20:19:39;23.90;41.40
41884;DHT22;27566;50.930;5.328;2023-06-14T20:22:05;23.90;40.80
41884;DHT22;27566;50.930;5.328;2023-06-14T20:24:31;23.70;40.90
41884;DHT22;27566;50.930;5.328;2023-06-14T20:26:57;23.60;41.10
41884;DHT22;27566;50.930;5.328;2023-06-14T20:29:23;23.60;41.20
41884;DHT22;27566;50.930;5.328;2023-06-14T20:31:49;23.50;41.30
41884;DHT22;27566;50.930;5.328;2023-06-14T20:34:16;23.40;41.60
41884;DHT22;27566;50.930;5.328;2023-06-14T20:36:42;23.30;41.70
41884;DHT22;27566;50.930;5.328;2023-06-14T20:39:08;23.30;41.70
41884;DHT22;27566;50.930;5.328;2023-06-14T20:41:34;23.20;41.80
41884;DHT22;27566;50.930;5.328;2023-06-14T20:44:00;23.10;42.00
41884;DHT22;27566;50.930;5.328;2023-06-14T20:46:27;23.10;42.00
41884;DHT22;27566;50.930;5.328;2023-06-14T20:48:58;23.00;42.10
41884;DHT22;27566;50.930;5.328;2023-06-14T20:51:24;23.00;42.10
41884;DHT22;27566;50.930;5.328;2023-06-14T20:53:50;23.00;42.20
41884;DHT22;27566;50.930;5.328;2023-06-14T20:56:17;22.90;42.30
41884;DHT22;27566;50.930;5.328;2023-06-14T20:58:44;22.90;42.60
41884;DHT22;27566;50.930;5.328;2023-06-14T21:01:09;22.80;42.70
41884;DHT22;27566;50.930;5.328;2023-06-14T21:03:35;22.70;43.00
41884;DHT22;27566;50.930;5.328;2023-06-14T21:06:01;22.60;42.90
41884;DHT22;27566;50.930;5.328;2023-06-14T21:08:30;22.60;43.20
41884;DHT22;27566;50.930;5.328;2023-06-14T21:10:56;22.50;43.20
41884;DHT22;27566;50.930;5.328;2023-06-14T21:13:24;22.50;43.30
41884;DHT22;27566;50.930;5.328;2023-06-14T21:15:50;22.50;43.40
41884;DHT22;27566;50.930;5.328;2023-06-14T21:18:17;22.40;43.90
41884;DHT22;27566;50.930;5.328;2023-06-14T21:20:43;22.40;43.50
41884;DHT22;27566;50.930;5.328;2023-06-14T21:23:08;22.30;43.60
41884;DHT22;27566;50.930;5.328;2023-06-14T21:25:35;22.30;43.60
41884;DHT22;27566;50.930;5.328;2023-06-14T21:28:01;22.30;43.70
41884;DHT22;27566;50.930;5.328;2023-06-14T21:30:36;22.30;43.80
41884;DHT22;27566;50.930;5.328;2023-06-14T21:33:03;22.20;43.70
41884;DHT22;27566;50.930;5.328;2023-06-14T21:35:32;22.20;43.90
41884;DHT22;27566;50.930;5.328;2023-06-14T21:37:58;22.20;44.00
41884;DHT22;27566;50.930;5.328;2023-06-14T21:40:24;22.20;44.10
41884;DHT22;27566;50.930;5.328;2023-06-14T21:42:50;22.10;44.10
41884;DHT22;27566;50.930;5.328;2023-06-14T21:45:16;22.10;44.20
41884;DHT22;27566;50.930;5.328;2023-06-14T21:47:42;22.00;44.20
41884;DHT22;27566;50.930;5.328;2023-06-14T21:50:08;21.90;44.40
41884;DHT22;27566;50.930;5.328;2023-06-14T21:52:34;21.90;44.60
41884;DHT22;27566;50.930;5.328;2023-06-14T21:55:00;21.90;44.60
41884;DHT22;27566;50.930;5.328;2023-06-14T21:57:26;21.80;44.60
41884;DHT22;27566;50.930;5.328;2023-06-14T21:59:53;21.80;44.80
41884;DHT22;27566;50.930;5.328;2023-06-14T22:02:19;21.80;44.90
41884;DHT22;27566;50.930;5.328;2023-06-14T22:04:45;21.70;44.80
41884;DHT22;27566;50.930;5.328;2023-06-14T22:07:10;21.70;45.00
41884;DHT22;27566;50.930;5.328;2023-06-14T22:09:46;21.70;44.90
41884;DHT22;27566;50.930;5.328;2023-06-14T22:12:14;21.60;45.00
41884;DHT22;27566;50.930;5.328;2023-06-14T22:14:44;21.60;45.20
41884;DHT22;27566;50.930;5.328;2023-06-14T22:17:14;21.50;45.40
41884;DHT22;27566;50.930;5.328;2023-06-14T22:19:42;21.50;45.40
41884;DHT22;27566;50.930;5.328;2023-06-14T22:22:09;21.50;45.50
41884;DHT22;27566;50.930;5.328;2023-06-14T22:24:36;21.50;45.60
41884;DHT22;27566;50.930;5.328;2023-06-14T22:27:03;21.50;45.60
41884;DHT22;27566;50.930;5.328;2023-06-14T22:29:30;21.50;45.80
41884;DHT22;27566;50.930;5.328;2023-06-14T22:31:59;21.40;45.60
41884;DHT22;27566;50.930;5.328;2023-06-14T22:34:25;21.40;45.80
41884;DHT22;27566;50.930;5.328;2023-06-14T22:36:51;21.40;46.60
41884;DHT22;27566;50.930;5.328;2023-06-14T22:39:18;21.40;46.10
41884;DHT22;27566;50.930;5.328;2023-06-14T22:41:44;21.30;46.10
41884;DHT22;27566;50.930;5.328;2023-06-14T22:44:13;21.30;46.10
41884;DHT22;27566;50.930;5.328;2023-06-14T22:46:43;21.20;46.10
41884;DHT22;27566;50.930;5.328;2023-06-14T22:49:08;21.20;46.50
41884;DHT22;27566;50.930;5.328;2023-06-14T22:51:36;21.20;46.50
41884;DHT22;27566;50.930;5.328;2023-06-14T22:54:02;21.20;46.60
41884;DHT22;27566;50.930;5.328;2023-06-14T22:56:28;21.10;46.70
41884;DHT22;27566;50.930;5.328;2023-06-14T22:58:53;21.10;46.80
41884;DHT22;27566;50.930;5.328;2023-06-14T23:01:19;21.00;46.90
41884;DHT22;27566;50.930;5.328;2023-06-14T23:03:52;21.00;46.90
41884;DHT22;27566;50.930;5.328;2023-06-14T23:06:18;21.00;47.10
41884;DHT22;27566;50.930;5.328;2023-06-14T23:09:02;21.00;47.50
41884;DHT22;27566;50.930;5.328;2023-06-14T23:11:28;20.90;47.30
41884;DHT22;27566;50.930;5.328;2023-06-14T23:13:54;20.80;47.60
41884;DHT22;27566;50.930;5.328;2023-06-14T23:16:20;20.80;48.00
41884;DHT22;27566;50.930;5.328;2023-06-14T23:18:47;20.80;48.10
41884;DHT22;27566;50.930;5.328;2023-06-14T23:21:13;20.80;48.00
41884;DHT22;27566;50.930;5.328;2023-06-14T23:23:44;20.80;48.10
41884;DHT22;27566;50.930;5.328;2023-06-14T23:26:15;20.80;48.20
41884;DHT22;27566;50.930;5.328;2023-06-14T23:28:42;20.80;48.20
41884;DHT22;27566;50.930;5.328;2023-06-14T23:31:08;20.90;48.20
41884;DHT22;27566;50.930;5.328;2023-06-14T23:33:35;20.90;48.10
41884;DHT22;27566;50.930;5.328;2023-06-14T23:36:02;20.90;48.10
41884;DHT22;27566;50.930;5.328;2023-06-14T23:38:30;20.90;48.00
41884;DHT22;27566;50.930;5.328;2023-06-14T23:40:56;20.90;48.10
41884;DHT22;27566;50.930;5.328;2023-06-14T23:43:24;20.90;48.10
41884;DHT22;27566;50.930;5.328;2023-06-14T23:45:50;20.90;48.10
41884;DHT22;27566;50.930;5.328;2023-06-14T23:48:22;20.90;48.20
41884;DHT22;27566;50.930;5.328;2023-06-14T23:50:54;20.90;48.40
41884;DHT22;27566;50.930;5.328;2023-06-14T23:53:21;20.80;48.40
41884;DHT22;27566;50.930;5.328;2023-06-14T23:55:52;20.80;48.60
41884;DHT22;27566;50.930;5.328;2023-06-14T23:58:22;20.70;48.80
